createdAt,value
2019-04-30T00:00:13.236Z,1017.80
2019-04-30T00:01:15.183Z,1017.80
2019-04-30T00:02:13.262Z,1017.77
2019-04-30T00:03:17.975Z,1017.75
2019-04-30T00:04:13.283Z,1017.74
2019-04-30T00:05:15.130Z,1017.72
2019-04-30T00:06:13.307Z,1017.73
2019-04-30T00:07:15.477Z,1017.74
2019-04-30T00:08:13.328Z,1017.71
2019-04-30T00:09:15.152Z,1017.71
2019-04-30T00:10:15.381Z,1017.72
2019-04-30T00:11:17.953Z,1017.68
2019-04-30T00:12:13.389Z,1017.68
2019-04-30T00:13:17.557Z,1017.65
2019-04-30T00:14:15.166Z,1017.67
2019-04-30T00:16:15.243Z,1017.63
2019-04-30T00:17:15.840Z,1017.63
2019-04-30T00:18:15.415Z,1017.66
2019-04-30T00:19:15.793Z,1017.63
2019-04-30T00:20:15.131Z,1017.68
2019-04-30T00:21:15.148Z,1017.62
2019-04-30T00:22:15.678Z,1017.62
2019-04-30T00:23:13.528Z,1017.64
2019-04-30T00:24:13.539Z,1017.62
2019-04-30T00:25:15.212Z,1017.63
2019-04-30T00:26:17.007Z,1017.61
2019-04-30T00:27:15.111Z,1017.62
2019-04-30T00:28:15.150Z,1017.62
2019-04-30T00:29:19.228Z,1017.58
2019-04-30T00:30:15.345Z,1017.59
2019-04-30T00:31:17.602Z,1017.62
2019-04-30T00:32:13.638Z,1017.59
2019-04-30T00:33:15.219Z,1017.57
2019-04-30T00:34:15.124Z,1017.60
2019-04-30T00:35:16.203Z,1017.59
2019-04-30T00:36:14.836Z,1017.61
2019-04-30T00:37:18.346Z,1017.57
2019-04-30T00:38:15.139Z,1017.60
2019-04-30T00:39:16.200Z,1017.59
2019-04-30T00:40:15.287Z,1017.53
2019-04-30T00:41:15.449Z,1017.51
2019-04-30T00:42:17.293Z,1017.48
2019-04-30T00:43:15.443Z,1017.47
2019-04-30T00:45:15.486Z,1017.46
2019-04-30T00:46:17.363Z,1017.44
2019-04-30T00:47:15.420Z,1017.41
2019-04-30T00:48:19.427Z,1017.43
2019-04-30T00:49:18.576Z,1017.37
2019-04-30T00:50:14.956Z,1017.40
2019-04-30T00:51:20.827Z,1017.41
2019-04-30T00:52:15.370Z,1017.41
2019-04-30T00:53:14.789Z,1017.43
2019-04-30T00:54:15.242Z,1017.41
2019-04-30T00:55:15.007Z,1017.46
2019-04-30T00:56:15.662Z,1017.47
2019-04-30T00:57:15.173Z,1017.44
2019-04-30T00:58:17.498Z,1017.47
2019-04-30T00:59:15.090Z,1017.45
2019-04-30T01:00:19.734Z,1017.47
2019-04-30T01:01:15.256Z,1017.47
2019-04-30T01:02:20.112Z,1017.45
2019-04-30T01:03:15.391Z,1017.42
2019-04-30T01:04:15.099Z,1017.37
2019-04-30T01:05:15.695Z,1017.41
2019-04-30T01:06:17.209Z,1017.41
2019-04-30T01:07:15.581Z,1017.41
2019-04-30T01:08:15.359Z,1017.38
2019-04-30T01:09:15.569Z,1017.41
2019-04-30T01:10:15.178Z,1017.41
2019-04-30T01:11:15.421Z,1017.37
2019-04-30T01:12:19.166Z,1017.38
2019-04-30T01:13:14.143Z,1017.35
2019-04-30T01:14:14.152Z,1017.37
2019-04-30T01:15:14.647Z,1017.36
2019-04-30T01:16:14.211Z,1017.37
2019-04-30T01:17:14.196Z,1017.38
2019-04-30T01:18:14.209Z,1017.38
2019-04-30T01:19:27.628Z,1017.36
2019-04-30T01:20:14.225Z,1017.38
2019-04-30T01:21:14.248Z,1017.40
2019-04-30T01:22:14.406Z,1017.41
2019-04-30T01:23:14.264Z,1017.36
2019-04-30T01:24:14.275Z,1017.40
2019-04-30T01:25:14.289Z,1017.36
2019-04-30T01:26:14.298Z,1017.34
2019-04-30T01:27:14.325Z,1017.38
2019-04-30T01:28:16.322Z,1017.38
2019-04-30T01:29:14.352Z,1017.34
2019-04-30T01:30:18.716Z,1017.38
2019-04-30T01:31:14.370Z,1017.34
2019-04-30T01:32:17.359Z,1017.31
2019-04-30T01:33:14.595Z,1017.34
2019-04-30T01:34:14.411Z,1017.29
2019-04-30T01:35:14.429Z,1017.30
2019-04-30T01:36:14.435Z,1017.29
2019-04-30T01:37:14.769Z,1017.30
2019-04-30T01:38:14.466Z,1017.29
2019-04-30T01:39:14.480Z,1017.33
2019-04-30T01:40:14.485Z,1017.30
2019-04-30T01:41:14.516Z,1017.34
2019-04-30T01:42:14.527Z,1017.38
2019-04-30T01:43:14.539Z,1017.38
2019-04-30T01:44:14.532Z,1017.36
2019-04-30T01:45:14.547Z,1017.37
2019-04-30T01:46:14.557Z,1017.33
2019-04-30T01:47:14.581Z,1017.37
2019-04-30T01:48:14.581Z,1017.37
2019-04-30T01:49:14.590Z,1017.37
2019-04-30T01:50:14.625Z,1017.40
2019-04-30T01:51:20.411Z,1017.36
2019-04-30T01:52:14.631Z,1017.38
2019-04-30T01:53:14.651Z,1017.37
2019-04-30T01:54:20.850Z,1017.36
2019-04-30T01:55:14.715Z,1017.36
2019-04-30T01:56:14.696Z,1017.36
2019-04-30T01:57:14.709Z,1017.40
2019-04-30T01:58:14.718Z,1017.36
2019-04-30T01:59:14.730Z,1017.36
2019-04-30T02:00:14.730Z,1017.37
2019-04-30T02:01:14.747Z,1017.38
2019-04-30T02:02:14.759Z,1017.39
2019-04-30T02:03:14.776Z,1017.40
2019-04-30T02:04:14.793Z,1017.40
2019-04-30T02:05:14.813Z,1017.39
2019-04-30T02:06:14.821Z,1017.35
2019-04-30T02:07:14.822Z,1017.38
2019-04-30T02:08:14.850Z,1017.40
2019-04-30T02:09:14.848Z,1017.38
2019-04-30T02:10:14.868Z,1017.37
2019-04-30T02:11:14.879Z,1017.38
2019-04-30T02:12:14.880Z,1017.34
2019-04-30T02:13:14.907Z,1017.33
2019-04-30T02:14:14.915Z,1017.37
2019-04-30T02:15:14.933Z,1017.33
2019-04-30T02:16:14.946Z,1017.31
2019-04-30T02:17:14.975Z,1017.34
2019-04-30T02:18:14.962Z,1017.31
2019-04-30T02:19:14.969Z,1017.28
2019-04-30T02:20:14.994Z,1017.28
2019-04-30T02:21:15.000Z,1017.29
2019-04-30T02:22:15.012Z,1017.27
2019-04-30T02:23:15.032Z,1017.32
2019-04-30T02:24:15.045Z,1017.33
2019-04-30T02:25:15.045Z,1017.28
2019-04-30T02:27:15.151Z,1017.28
2019-04-30T02:28:15.130Z,1017.25
2019-04-30T02:29:15.115Z,1017.32
2019-04-30T02:30:15.111Z,1017.29
2019-04-30T02:31:15.125Z,1017.29
2019-04-30T02:32:15.139Z,1017.27
2019-04-30T02:33:15.157Z,1017.25
2019-04-30T02:34:15.182Z,1017.25
2019-04-30T02:35:15.184Z,1017.19
2019-04-30T02:36:15.232Z,1017.25
2019-04-30T02:37:15.203Z,1017.18
2019-04-30T02:38:15.223Z,1017.26
2019-04-30T02:39:15.225Z,1017.24
2019-04-30T02:40:15.235Z,1017.28
2019-04-30T02:41:15.304Z,1017.25
2019-04-30T02:42:15.272Z,1017.23
2019-04-30T02:43:15.278Z,1017.22
2019-04-30T02:44:15.289Z,1017.28
2019-04-30T02:45:15.296Z,1017.25
2019-04-30T02:46:15.342Z,1017.26
2019-04-30T02:47:15.326Z,1017.24
2019-04-30T02:48:15.369Z,1017.23
2019-04-30T02:49:15.363Z,1017.22
2019-04-30T02:50:19.802Z,1017.20
2019-04-30T02:51:15.385Z,1017.19
2019-04-30T02:52:15.390Z,1017.19
2019-04-30T02:53:15.426Z,1017.21
2019-04-30T02:54:15.432Z,1017.24
2019-04-30T02:55:15.426Z,1017.26
2019-04-30T02:56:15.450Z,1017.26
2019-04-30T02:57:15.521Z,1017.27
2019-04-30T02:58:15.479Z,1017.25
2019-04-30T02:59:15.503Z,1017.30
2019-04-30T03:00:15.488Z,1017.28
2019-04-30T03:01:15.501Z,1017.28
2019-04-30T03:02:15.512Z,1017.32
2019-04-30T03:03:15.519Z,1017.27
2019-04-30T03:04:15.535Z,1017.27
2019-04-30T03:05:15.563Z,1017.25
2019-04-30T03:06:15.570Z,1017.30
2019-04-30T03:07:15.577Z,1017.28
2019-04-30T03:08:15.591Z,1017.28
2019-04-30T03:09:15.604Z,1017.25
2019-04-30T03:10:15.609Z,1017.29
2019-04-30T03:11:15.629Z,1017.26
2019-04-30T03:12:15.633Z,1017.27
2019-04-30T03:13:15.682Z,1017.22
2019-04-30T03:14:15.666Z,1017.24
2019-04-30T03:15:15.669Z,1017.24
2019-04-30T03:16:15.691Z,1017.28
2019-04-30T03:17:15.725Z,1017.28
2019-04-30T03:18:15.722Z,1017.21
2019-04-30T03:19:15.736Z,1017.19
2019-04-30T03:20:31.787Z,1017.19
2019-04-30T03:21:15.752Z,1017.13
2019-04-30T03:22:15.765Z,1017.11
2019-04-30T03:23:15.775Z,1017.12
2019-04-30T03:24:15.811Z,1017.09
2019-04-30T03:25:15.791Z,1017.10
2019-04-30T03:26:15.830Z,1017.06
2019-04-30T03:27:15.830Z,1017.08
2019-04-30T03:28:15.831Z,1017.08
2019-04-30T03:29:15.961Z,1017.13
2019-04-30T03:30:15.886Z,1017.07
2019-04-30T03:31:15.867Z,1017.05
2019-04-30T03:32:15.887Z,1017.05
2019-04-30T03:33:15.908Z,1017.07
2019-04-30T03:34:23.186Z,1017.07
2019-04-30T03:35:16.037Z,1017.04
2019-04-30T03:36:15.932Z,1017.07
2019-04-30T03:37:15.950Z,1017.08
2019-04-30T03:38:15.962Z,1017.07
2019-04-30T03:39:15.970Z,1017.06
2019-04-30T03:40:15.993Z,1017.05
2019-04-30T03:41:15.996Z,1017.09
2019-04-30T03:42:16.015Z,1017.09
2019-04-30T03:43:16.039Z,1017.06
2019-04-30T03:44:21.824Z,1016.99
2019-04-30T03:45:16.195Z,1017.02
2019-04-30T03:46:16.066Z,1017.01
2019-04-30T03:47:16.076Z,1017.02
2019-04-30T03:48:16.078Z,1017.02
2019-04-30T03:49:16.103Z,1017.02
2019-04-30T03:50:16.106Z,1016.97
2019-04-30T03:51:16.116Z,1016.96
2019-04-30T03:52:16.127Z,1016.95
2019-04-30T03:53:16.157Z,1016.99
2019-04-30T03:54:16.155Z,1016.93
2019-04-30T03:55:16.179Z,1016.98
2019-04-30T03:56:16.191Z,1017.00
2019-04-30T03:57:16.207Z,1017.01
2019-04-30T03:58:16.207Z,1017.02
2019-04-30T03:59:16.228Z,1017.01
2019-04-30T04:00:16.232Z,1017.03
2019-04-30T04:01:16.244Z,1017.07
2019-04-30T04:02:16.249Z,1017.06
2019-04-30T04:03:16.280Z,1017.07
2019-04-30T04:04:16.666Z,1017.07
2019-04-30T04:05:16.292Z,1017.05
2019-04-30T04:06:16.300Z,1017.04
2019-04-30T04:07:20.091Z,1017.06
2019-04-30T04:08:16.377Z,1017.03
2019-04-30T04:09:16.358Z,1017.06
2019-04-30T04:10:16.376Z,1017.05
2019-04-30T04:11:16.379Z,1017.06
2019-04-30T04:12:16.394Z,1017.05
2019-04-30T04:13:16.438Z,1017.08
2019-04-30T04:14:16.412Z,1017.08
2019-04-30T04:15:16.414Z,1017.10
2019-04-30T04:16:16.423Z,1017.13
2019-04-30T04:17:16.440Z,1017.14
2019-04-30T04:18:16.448Z,1017.15
2019-04-30T04:19:16.460Z,1017.13
2019-04-30T04:20:16.468Z,1017.19
2019-04-30T04:21:17.330Z,1017.18
2019-04-30T04:22:16.501Z,1017.17
2019-04-30T04:23:19.093Z,1017.17
2019-04-30T04:24:16.539Z,1017.18
2019-04-30T04:25:16.531Z,1017.19
2019-04-30T04:26:16.560Z,1017.22
2019-04-30T04:27:16.560Z,1017.22
2019-04-30T04:28:16.575Z,1017.23
2019-04-30T04:29:19.368Z,1017.26
2019-04-30T04:30:16.614Z,1017.19
2019-04-30T04:31:19.077Z,1017.24
2019-04-30T04:32:16.624Z,1017.22
2019-04-30T04:33:16.650Z,1017.26
2019-04-30T04:34:19.447Z,1017.24
2019-04-30T04:35:19.482Z,1017.25
2019-04-30T04:36:16.733Z,1017.27
2019-04-30T04:37:19.126Z,1017.26
2019-04-30T04:39:16.721Z,1017.26
2019-04-30T04:40:16.766Z,1017.26
2019-04-30T04:41:19.593Z,1017.27
2019-04-30T04:42:19.131Z,1017.29
2019-04-30T04:43:16.748Z,1017.28
2019-04-30T04:44:19.570Z,1017.30
2019-04-30T04:45:19.585Z,1017.29
2019-04-30T04:46:16.888Z,1017.31
2019-04-30T04:47:19.447Z,1017.26
2019-04-30T04:48:19.926Z,1017.29
2019-04-30T04:49:16.828Z,1017.31
2019-04-30T04:50:17.011Z,1017.31
2019-04-30T04:51:31.257Z,1017.28
2019-04-30T04:52:16.883Z,1017.33
2019-04-30T04:53:19.325Z,1017.34
2019-04-30T04:54:16.896Z,1017.33
2019-04-30T04:55:16.914Z,1017.33
2019-04-30T04:56:19.034Z,1017.36
2019-04-30T04:57:19.523Z,1017.38
2019-04-30T04:58:21.166Z,1017.39
2019-04-30T04:59:16.958Z,1017.36
2019-04-30T05:00:19.229Z,1017.37
2019-04-30T05:01:16.981Z,1017.39
2019-04-30T05:02:19.469Z,1017.38
2019-04-30T05:03:17.004Z,1017.37
2019-04-30T05:04:19.705Z,1017.39
2019-04-30T05:05:19.242Z,1017.39
2019-04-30T05:06:20.687Z,1017.40
2019-04-30T05:07:17.099Z,1017.46
2019-04-30T05:08:18.558Z,1017.46
2019-04-30T05:09:17.174Z,1017.48
2019-04-30T05:10:19.065Z,1017.49
2019-04-30T05:11:19.099Z,1017.48
2019-04-30T05:12:18.561Z,1017.47
2019-04-30T05:13:19.069Z,1017.49
2019-04-30T05:14:19.031Z,1017.48
2019-04-30T05:15:19.304Z,1017.46
2019-04-30T05:16:18.915Z,1017.49
2019-04-30T05:17:17.182Z,1017.46
2019-04-30T05:18:19.045Z,1017.51
2019-04-30T05:19:18.659Z,1017.49
2019-04-30T05:20:19.279Z,1017.50
2019-04-30T05:21:18.790Z,1017.48
2019-04-30T05:22:18.961Z,1017.52
2019-04-30T05:23:17.239Z,1017.53
2019-04-30T05:24:18.909Z,1017.49
2019-04-30T05:25:18.662Z,1017.54
2019-04-30T05:26:19.063Z,1017.51
2019-04-30T05:27:17.295Z,1017.48
2019-04-30T05:28:18.965Z,1017.49
2019-04-30T05:29:19.071Z,1017.49
2019-04-30T05:30:19.367Z,1017.49
2019-04-30T05:31:18.438Z,1017.51
2019-04-30T05:32:19.584Z,1017.50
2019-04-30T05:33:18.642Z,1017.52
2019-04-30T05:34:18.869Z,1017.51
2019-04-30T05:35:18.575Z,1017.56
2019-04-30T05:36:19.187Z,1017.51
2019-04-30T05:37:18.687Z,1017.55
2019-04-30T05:38:18.984Z,1017.52
2019-04-30T05:39:18.885Z,1017.53
2019-04-30T05:40:18.901Z,1017.54
2019-04-30T05:41:19.152Z,1017.53
2019-04-30T05:43:19.219Z,1017.57
2019-04-30T05:44:18.538Z,1017.52
2019-04-30T05:45:19.241Z,1017.55
2019-04-30T05:46:19.471Z,1017.55
2019-04-30T05:47:19.390Z,1017.57
2019-04-30T05:48:18.575Z,1017.58
2019-04-30T05:49:18.856Z,1017.60
2019-04-30T05:50:19.774Z,1017.57
2019-04-30T05:51:19.386Z,1017.60
2019-04-30T05:52:19.685Z,1017.60
2019-04-30T05:53:19.016Z,1017.64
2019-04-30T05:54:19.018Z,1017.62
2019-04-30T05:55:19.597Z,1017.59
2019-04-30T05:56:19.304Z,1017.64
2019-04-30T05:57:19.578Z,1017.58
2019-04-30T05:58:19.787Z,1017.64
2019-04-30T05:59:20.410Z,1017.64
2019-04-30T06:00:19.063Z,1017.61
2019-04-30T06:01:19.660Z,1017.60
2019-04-30T06:02:19.268Z,1017.59
2019-04-30T06:03:27.548Z,1017.61
2019-04-30T06:04:19.291Z,1017.61
2019-04-30T06:05:18.809Z,1017.63
2019-04-30T06:06:19.325Z,1017.64
2019-04-30T06:07:18.980Z,1017.64
2019-04-30T06:08:19.235Z,1017.63
2019-04-30T06:09:30.784Z,1017.61
2019-04-30T06:10:19.309Z,1017.62
2019-04-30T06:11:19.214Z,1017.55
2019-04-30T06:12:18.754Z,1017.53
2019-04-30T06:14:18.615Z,1017.53
2019-04-30T06:15:19.371Z,1017.57
2019-04-30T06:16:18.848Z,1017.56
2019-04-30T06:17:19.718Z,1017.58
2019-04-30T06:18:18.606Z,1017.60
2019-04-30T06:19:19.516Z,1017.63
2019-04-30T06:20:20.895Z,1017.63
2019-04-30T06:21:21.340Z,1017.66
2019-04-30T06:23:19.471Z,1017.70
2019-04-30T06:24:18.819Z,1017.64
2019-04-30T06:25:30.466Z,1017.67
2019-04-30T06:26:20.722Z,1017.67
2019-04-30T06:27:19.154Z,1017.68
2019-04-30T06:28:19.602Z,1017.68
2019-04-30T06:29:18.978Z,1017.67
2019-04-30T06:30:19.850Z,1017.70
2019-04-30T06:31:22.307Z,1017.74
2019-04-30T06:32:18.650Z,1017.74
2019-04-30T06:33:19.307Z,1017.74
2019-04-30T06:34:19.755Z,1017.77
2019-04-30T06:35:19.357Z,1017.72
2019-04-30T06:36:19.036Z,1017.72
2019-04-30T06:37:19.411Z,1017.71
2019-04-30T06:38:18.608Z,1017.76
2019-04-30T06:39:18.752Z,1017.76
2019-04-30T06:40:19.616Z,1017.81
2019-04-30T06:41:19.819Z,1017.84
2019-04-30T06:42:19.473Z,1017.78
2019-04-30T06:43:19.062Z,1017.76
2019-04-30T06:44:19.473Z,1017.78
2019-04-30T06:45:19.131Z,1017.77
2019-04-30T06:46:18.752Z,1017.75
2019-04-30T06:47:26.607Z,1017.79
2019-04-30T06:48:19.896Z,1017.80
2019-04-30T06:49:19.483Z,1017.82
2019-04-30T06:50:19.431Z,1017.76
2019-04-30T06:51:18.927Z,1017.80
2019-04-30T06:52:23.023Z,1017.74
2019-04-30T06:53:19.271Z,1017.77
2019-04-30T06:54:19.155Z,1017.79
2019-04-30T06:55:19.259Z,1017.76
2019-04-30T06:56:18.909Z,1017.80
2019-04-30T06:57:19.846Z,1017.80
2019-04-30T06:58:20.495Z,1017.82
2019-04-30T06:59:20.278Z,1017.82
2019-04-30T07:00:20.776Z,1017.82
2019-04-30T07:01:19.071Z,1017.78
2019-04-30T07:02:19.749Z,1017.83
2019-04-30T07:03:19.136Z,1017.85
2019-04-30T07:04:19.477Z,1017.82
2019-04-30T07:06:29.219Z,1017.85
2019-04-30T07:07:22.670Z,1017.84
2019-04-30T07:08:18.998Z,1017.83
2019-04-30T07:09:19.686Z,1017.81
2019-04-30T07:10:20.419Z,1017.76
2019-04-30T07:11:19.487Z,1017.76
2019-04-30T07:12:27.304Z,1017.76
2019-04-30T07:13:18.847Z,1017.78
2019-04-30T07:14:19.544Z,1017.74
2019-04-30T07:15:19.672Z,1017.82
2019-04-30T07:16:19.091Z,1017.77
2019-04-30T07:17:19.563Z,1017.74
2019-04-30T07:18:19.024Z,1017.83
2019-04-30T07:19:29.920Z,1017.80
2019-04-30T07:20:19.219Z,1017.84
2019-04-30T07:21:19.777Z,1017.81
2019-04-30T07:22:20.652Z,1017.77
2019-04-30T07:23:18.929Z,1017.75
2019-04-30T07:24:20.713Z,1017.78
2019-04-30T07:25:19.521Z,1017.81
2019-04-30T07:26:23.308Z,1017.79
2019-04-30T07:27:23.718Z,1017.79
2019-04-30T07:28:19.479Z,1017.78
2019-04-30T07:29:19.626Z,1017.80
2019-04-30T07:30:19.200Z,1017.79
2019-04-30T07:31:19.349Z,1017.79
2019-04-30T07:32:19.780Z,1017.80
2019-04-30T07:33:20.723Z,1017.81
2019-04-30T07:34:19.610Z,1017.79
2019-04-30T07:35:19.591Z,1017.83
2019-04-30T07:36:19.516Z,1017.80
2019-04-30T07:37:24.103Z,1017.81
2019-04-30T07:38:19.491Z,1017.84
2019-04-30T07:39:19.300Z,1017.85
2019-04-30T07:40:19.174Z,1017.85
2019-04-30T07:41:19.250Z,1017.83
2019-04-30T07:42:19.755Z,1017.85
2019-04-30T07:43:19.165Z,1017.85
2019-04-30T07:44:30.971Z,1017.89
2019-04-30T07:45:19.683Z,1017.88
2019-04-30T07:46:19.952Z,1017.92
2019-04-30T07:47:19.716Z,1017.89
2019-04-30T07:48:25.684Z,1017.86
2019-04-30T07:49:20.518Z,1017.93
2019-04-30T07:50:21.335Z,1017.90
2019-04-30T07:51:21.074Z,1017.84
2019-04-30T07:52:21.492Z,1017.92
2019-04-30T07:53:19.223Z,1017.89
2019-04-30T07:54:19.142Z,1017.94
2019-04-30T07:55:19.756Z,1017.92
2019-04-30T07:56:25.750Z,1017.94
2019-04-30T07:57:20.082Z,1017.94
2019-04-30T07:58:20.495Z,1017.99
2019-04-30T07:59:20.206Z,1017.98
2019-04-30T08:00:19.563Z,1017.99
2019-04-30T08:01:19.712Z,1018.03
2019-04-30T08:02:20.870Z,1017.96
2019-04-30T08:03:20.536Z,1017.97
2019-04-30T08:04:19.593Z,1017.97
2019-04-30T08:05:20.003Z,1017.98
2019-04-30T08:06:22.196Z,1017.93
2019-04-30T08:07:20.131Z,1017.99
2019-04-30T08:09:22.108Z,1017.97
2019-04-30T08:09:35.581Z,1017.95
2019-04-30T08:10:19.349Z,1017.97
2019-04-30T08:11:25.741Z,1017.95
2019-04-30T08:12:26.117Z,1017.95
2019-04-30T08:13:21.837Z,1017.95
2019-04-30T08:14:21.224Z,1018.01
2019-04-30T08:15:19.934Z,1017.99
2019-04-30T08:16:19.624Z,1018.00
2019-04-30T08:17:19.444Z,1018.00
2019-04-30T08:18:19.457Z,1017.99
2019-04-30T08:19:19.478Z,1018.01
2019-04-30T08:20:19.820Z,1018.04
2019-04-30T08:21:19.587Z,1018.01
2019-04-30T08:22:19.754Z,1018.05
2019-04-30T08:23:33.081Z,1018.05
2019-04-30T08:24:20.299Z,1018.04
2019-04-30T08:25:21.900Z,1018.03
2019-04-30T08:26:19.575Z,1018.04
2019-04-30T08:27:19.820Z,1018.04
2019-04-30T08:28:19.593Z,1018.02
2019-04-30T08:29:19.605Z,1018.06
2019-04-30T08:30:26.124Z,1018.04
2019-04-30T08:31:19.723Z,1018.08
2019-04-30T08:32:19.654Z,1018.11
2019-04-30T08:33:19.653Z,1018.09
2019-04-30T08:34:20.171Z,1018.09
2019-04-30T08:35:19.882Z,1018.14
2019-04-30T08:36:19.809Z,1018.16
2019-04-30T08:37:20.349Z,1018.12
2019-04-30T08:38:19.722Z,1018.13
2019-04-30T08:39:19.828Z,1018.12
2019-04-30T08:40:20.074Z,1018.12
2019-04-30T08:41:20.030Z,1018.10
2019-04-30T08:42:30.709Z,1018.11
2019-04-30T08:43:19.928Z,1018.12
2019-04-30T08:44:21.228Z,1018.10
2019-04-30T08:45:19.909Z,1018.10
2019-04-30T08:46:19.837Z,1018.14
2019-04-30T08:47:21.269Z,1018.11
2019-04-30T08:49:20.269Z,1018.11
2019-04-30T08:50:20.815Z,1018.11
2019-04-30T08:51:20.319Z,1018.10
2019-04-30T08:52:20.454Z,1018.10
2019-04-30T08:53:27.516Z,1018.14
2019-04-30T08:54:20.727Z,1018.14
2019-04-30T08:55:22.445Z,1018.12
2019-04-30T08:56:22.013Z,1018.10
2019-04-30T08:57:20.048Z,1018.06
2019-04-30T08:58:20.547Z,1018.08
2019-04-30T08:59:20.010Z,1018.06
2019-04-30T09:00:20.659Z,1018.04
2019-04-30T09:01:20.611Z,1018.01
2019-04-30T09:02:20.052Z,1018.02
2019-04-30T09:03:20.057Z,1018.01
2019-04-30T09:04:20.272Z,1017.98
2019-04-30T09:05:20.097Z,1017.98
2019-04-30T09:06:20.108Z,1017.99
2019-04-30T09:07:20.167Z,1017.99
2019-04-30T09:08:23.540Z,1017.98
2019-04-30T09:09:20.135Z,1017.98
2019-04-30T09:10:20.164Z,1017.94
2019-04-30T09:11:27.351Z,1017.92
2019-04-30T09:12:20.180Z,1017.96
2019-04-30T09:13:20.182Z,1017.96
2019-04-30T09:14:20.226Z,1017.97
2019-04-30T09:15:20.223Z,1017.95
2019-04-30T09:16:20.315Z,1017.94
2019-04-30T09:17:20.246Z,1017.92
2019-04-30T09:18:20.260Z,1017.92
2019-04-30T09:19:21.297Z,1017.89
2019-04-30T09:20:20.322Z,1017.91
2019-04-30T09:21:20.376Z,1017.87
2019-04-30T09:22:20.507Z,1017.90
2019-04-30T09:23:21.330Z,1017.95
2019-04-30T09:26:20.424Z,1017.93
2019-04-30T09:27:20.440Z,1017.90
2019-04-30T09:28:20.393Z,1017.94
2019-04-30T09:29:20.429Z,1017.92
2019-04-30T09:30:21.028Z,1017.93
2019-04-30T09:31:20.666Z,1017.91
2019-04-30T09:32:20.442Z,1017.94
2019-04-30T09:33:20.474Z,1017.95
2019-04-30T09:34:21.231Z,1017.96
2019-04-30T09:35:20.826Z,1017.95
2019-04-30T09:36:20.959Z,1017.90
2019-04-30T09:37:20.917Z,1017.89
2019-04-30T09:38:20.566Z,1017.90
2019-04-30T09:39:22.852Z,1017.92
2019-04-30T09:40:21.202Z,1017.89
2019-04-30T09:41:20.688Z,1017.91
2019-04-30T09:42:20.743Z,1017.85
2019-04-30T09:43:20.596Z,1017.90
2019-04-30T09:44:20.612Z,1017.91
2019-04-30T09:45:20.622Z,1017.92
2019-04-30T09:46:26.725Z,1017.92
2019-04-30T09:47:20.650Z,1017.89
2019-04-30T09:48:20.659Z,1017.88
2019-04-30T09:49:20.684Z,1017.88
2019-04-30T09:50:20.707Z,1017.88
2019-04-30T09:51:24.126Z,1017.87
2019-04-30T09:52:21.017Z,1017.83
2019-04-30T09:53:20.970Z,1017.82
2019-04-30T09:54:21.155Z,1017.85
2019-04-30T09:55:20.768Z,1017.83
2019-04-30T09:56:21.090Z,1017.78
2019-04-30T09:57:20.798Z,1017.83
2019-04-30T09:58:21.319Z,1017.82
2019-04-30T09:59:20.863Z,1017.81
2019-04-30T10:00:21.113Z,1017.80
2019-04-30T10:01:22.145Z,1017.79
2019-04-30T10:02:20.878Z,1017.79
2019-04-30T10:03:21.656Z,1017.81
2019-04-30T10:04:21.504Z,1017.77
2019-04-30T10:05:21.034Z,1017.72
2019-04-30T10:06:20.913Z,1017.75
2019-04-30T10:07:20.999Z,1017.69
2019-04-30T10:08:21.423Z,1017.68
2019-04-30T10:09:20.984Z,1017.68
2019-04-30T10:10:20.979Z,1017.66
2019-04-30T10:11:20.986Z,1017.65
2019-04-30T10:12:21.046Z,1017.65
2019-04-30T10:13:21.039Z,1017.63
2019-04-30T10:14:21.064Z,1017.58
2019-04-30T10:15:21.079Z,1017.58
2019-04-30T10:16:21.064Z,1017.55
2019-04-30T10:17:21.077Z,1017.52
2019-04-30T10:18:21.089Z,1017.48
2019-04-30T10:19:21.164Z,1017.49
2019-04-30T10:20:21.105Z,1017.49
2019-04-30T10:21:21.642Z,1017.50
2019-04-30T10:22:21.202Z,1017.45
2019-04-30T10:23:21.277Z,1017.46
2019-04-30T10:24:21.651Z,1017.43
2019-04-30T10:25:21.305Z,1017.43
2019-04-30T10:27:21.268Z,1017.44
2019-04-30T10:28:21.269Z,1017.37
2019-04-30T10:29:21.342Z,1017.43
2019-04-30T10:30:21.600Z,1017.41
2019-04-30T10:31:21.357Z,1017.42
2019-04-30T10:32:21.285Z,1017.47
2019-04-30T10:33:21.336Z,1017.44
2019-04-30T10:34:21.333Z,1017.40
2019-04-30T10:35:21.345Z,1017.43
2019-04-30T10:36:21.413Z,1017.44
2019-04-30T10:37:21.375Z,1017.43
2019-04-30T10:38:21.373Z,1017.40
2019-04-30T10:39:21.731Z,1017.39
2019-04-30T10:40:21.420Z,1017.36
2019-04-30T10:41:21.419Z,1017.41
2019-04-30T10:42:21.443Z,1017.42
2019-04-30T10:43:21.444Z,1017.42
2019-04-30T10:44:21.501Z,1017.40
2019-04-30T10:45:21.485Z,1017.37
2019-04-30T10:46:21.495Z,1017.37
2019-04-30T10:47:22.459Z,1017.36
2019-04-30T10:48:21.820Z,1017.35
2019-04-30T10:49:21.540Z,1017.36
2019-04-30T10:50:22.327Z,1017.41
2019-04-30T10:51:21.624Z,1017.38
2019-04-30T10:52:22.405Z,1017.33
2019-04-30T10:53:21.582Z,1017.31
2019-04-30T10:54:26.056Z,1017.28
2019-04-30T10:55:21.650Z,1017.25
2019-04-30T10:56:22.474Z,1017.21
2019-04-30T10:57:22.735Z,1017.20
2019-04-30T10:58:21.767Z,1017.21
2019-04-30T10:59:21.724Z,1017.21
2019-04-30T11:00:21.689Z,1017.19
2019-04-30T11:02:21.725Z,1017.22
2019-04-30T11:03:23.074Z,1017.23
2019-04-30T11:04:21.831Z,1017.19
2019-04-30T11:05:21.766Z,1017.18
2019-04-30T11:06:21.763Z,1017.22
2019-04-30T11:07:21.798Z,1017.24
2019-04-30T11:08:21.782Z,1017.22
2019-04-30T11:09:22.453Z,1017.17
2019-04-30T11:10:22.179Z,1017.19
2019-04-30T11:11:21.842Z,1017.16
2019-04-30T11:12:21.837Z,1017.16
2019-04-30T11:13:21.879Z,1017.17
2019-04-30T11:14:21.882Z,1017.14
2019-04-30T11:15:21.902Z,1017.15
2019-04-30T11:16:21.913Z,1017.19
2019-04-30T11:17:22.060Z,1017.18
2019-04-30T11:18:22.144Z,1017.17
2019-04-30T11:19:23.231Z,1017.16
2019-04-30T11:20:22.439Z,1017.14
2019-04-30T11:22:22.120Z,1017.09
2019-04-30T11:23:22.385Z,1017.13
2019-04-30T11:24:22.153Z,1017.04
2019-04-30T11:25:22.367Z,1016.98
2019-04-30T11:26:22.527Z,1016.99
2019-04-30T11:27:22.469Z,1017.03
2019-04-30T11:28:22.694Z,1016.95
2019-04-30T11:29:23.269Z,1016.99
2019-04-30T11:30:24.400Z,1016.97
2019-04-30T11:31:22.285Z,1016.96
2019-04-30T11:32:22.410Z,1016.97
2019-04-30T11:33:22.366Z,1016.99
2019-04-30T11:34:22.167Z,1016.98
2019-04-30T11:35:22.176Z,1016.98
2019-04-30T11:36:22.195Z,1016.95
2019-04-30T11:37:22.228Z,1016.88
2019-04-30T11:38:22.209Z,1016.92
2019-04-30T11:39:22.243Z,1016.92
2019-04-30T11:40:31.505Z,1016.85
2019-04-30T11:41:30.082Z,1016.85
2019-04-30T11:42:22.277Z,1016.87
2019-04-30T11:43:22.287Z,1016.83
2019-04-30T11:44:31.023Z,1016.84
2019-04-30T11:45:22.324Z,1016.85
2019-04-30T11:46:22.342Z,1016.90
2019-04-30T11:47:22.339Z,1016.80
2019-04-30T11:48:22.371Z,1016.81
2019-04-30T11:49:22.384Z,1016.81
2019-04-30T11:50:22.393Z,1016.84
2019-04-30T11:51:22.411Z,1016.87
2019-04-30T11:52:22.428Z,1016.82
2019-04-30T11:53:27.700Z,1016.83
2019-04-30T11:54:22.444Z,1016.83
2019-04-30T11:55:22.571Z,1016.76
2019-04-30T11:56:22.781Z,1016.79
2019-04-30T11:57:22.942Z,1016.73
2019-04-30T11:58:22.553Z,1016.76
2019-04-30T11:59:22.523Z,1016.79
2019-04-30T12:00:22.619Z,1016.76
2019-04-30T12:01:22.584Z,1016.79
2019-04-30T12:02:22.794Z,1016.74
2019-04-30T12:03:22.680Z,1016.73
2019-04-30T12:04:22.915Z,1016.74
2019-04-30T12:05:22.613Z,1016.71
2019-04-30T12:06:22.709Z,1016.70
2019-04-30T12:07:22.665Z,1016.62
2019-04-30T12:08:22.692Z,1016.66
2019-04-30T12:09:22.698Z,1016.65
2019-04-30T12:10:22.677Z,1016.62
2019-04-30T12:11:22.699Z,1016.61
2019-04-30T12:12:22.731Z,1016.58
2019-04-30T12:13:22.748Z,1016.59
2019-04-30T12:14:23.255Z,1016.57
2019-04-30T12:15:22.754Z,1016.57
2019-04-30T12:16:22.769Z,1016.52
2019-04-30T12:17:22.824Z,1016.56
2019-04-30T12:18:22.823Z,1016.57
2019-04-30T12:19:22.823Z,1016.56